createdAt,value
2022-11-10T00:00:04.033Z,100550.84
2022-11-10T00:02:52.459Z,100559.72
2022-11-10T00:05:42.275Z,100550.00
2022-11-10T00:08:30.732Z,100560.56
2022-11-10T00:11:19.197Z,100556.81
2022-11-10T00:14:26.370Z,100554.53
2022-11-10T00:17:14.823Z,100574.22
2022-11-10T00:20:03.610Z,100569.03
2022-11-10T00:22:55.343Z,100565.91
2022-11-10T00:25:43.786Z,100581.03
2022-11-10T00:28:33.156Z,100560.94
2022-11-10T00:31:21.578Z,100565.91
2022-11-10T00:34:13.706Z,100579.16
2022-11-10T00:37:02.120Z,100574.59
2022-11-10T00:39:51.938Z,100581.84
2022-11-10T00:42:40.400Z,100592.41
2022-11-10T00:45:28.846Z,100593.00
2022-11-10T00:48:17.253Z,100603.94
2022-11-10T00:51:06.147Z,100595.03
2022-11-10T00:53:55.094Z,100606.63
2022-11-10T00:56:44.920Z,100603.88
2022-11-10T00:59:33.330Z,100612.78
2022-11-10T01:02:21.752Z,100621.25
2022-11-10T01:05:10.576Z,100623.72
2022-11-10T01:07:59.469Z,100633.03
2022-11-10T01:10:47.981Z,100636.31
2022-11-10T01:13:38.210Z,100631.28
2022-11-10T01:16:28.611Z,100653.41
2022-11-10T01:19:17.018Z,100649.66
2022-11-10T01:22:05.431Z,100649.03
2022-11-10T01:24:54.165Z,100656.81
2022-11-10T01:27:42.601Z,100662.81
2022-11-10T01:30:32.353Z,100652.22
2022-11-10T01:33:21.187Z,100655.50
2022-11-10T01:36:10.920Z,100655.88
2022-11-10T01:38:59.394Z,100661.88
2022-11-10T01:41:47.821Z,100663.06
2022-11-10T01:44:36.955Z,100677.94
2022-11-10T01:47:26.823Z,100686.56
2022-11-10T01:50:15.512Z,100685.91
2022-11-10T01:53:12.625Z,100688.41
2022-11-10T01:56:01.566Z,100678.97
2022-11-10T01:58:52.585Z,100683.66
2022-11-10T02:01:41.035Z,100692.09
2022-11-10T02:04:31.610Z,100690.69
2022-11-10T02:07:20.448Z,100669.22
2022-11-10T02:10:16.505Z,100699.81
2022-11-10T02:13:05.423Z,100702.84
2022-11-10T02:15:54.104Z,100705.25
2022-11-10T02:18:42.549Z,100706.22
2022-11-10T02:21:32.332Z,100719.41
2022-11-10T02:24:20.770Z,100717.47
2022-11-10T02:27:09.176Z,100728.41
2022-11-10T02:29:57.750Z,100714.00
2022-11-10T02:32:46.143Z,100740.72
2022-11-10T02:35:34.555Z,100732.22
2022-11-10T02:38:24.349Z,100745.81
2022-11-10T02:41:12.773Z,100743.13
2022-11-10T02:44:01.263Z,100736.31
2022-11-10T02:46:49.685Z,100730.41
2022-11-10T02:49:38.120Z,100735.13
2022-11-10T02:52:26.549Z,100735.06
2022-11-10T02:55:16.456Z,100733.38
2022-11-10T02:58:05.009Z,100738.88
2022-11-10T03:00:53.636Z,100745.88
2022-11-10T03:03:42.116Z,100756.16
2022-11-10T03:06:30.577Z,100759.97
2022-11-10T03:09:19.031Z,100774.75
2022-11-10T03:12:08.982Z,100765.78
2022-11-10T03:14:57.405Z,100769.50
2022-11-10T03:17:45.864Z,100785.28
2022-11-10T03:20:34.277Z,100786.66
2022-11-10T03:23:22.926Z,100790.78
2022-11-10T03:26:11.551Z,100786.81
2022-11-10T03:29:01.371Z,100790.78
2022-11-10T03:31:49.944Z,100788.81
2022-11-10T03:34:38.394Z,100793.97
2022-11-10T03:37:26.964Z,100790.47
2022-11-10T03:40:15.801Z,100779.09
2022-11-10T03:43:04.238Z,100785.81
2022-11-10T03:45:54.044Z,100794.31
2022-11-10T03:48:42.591Z,100792.19
2022-11-10T03:51:31.000Z,100783.84
2022-11-10T03:54:19.434Z,100798.09
2022-11-10T03:57:07.881Z,100795.69
2022-11-10T03:59:56.302Z,100793.44
2022-11-10T04:02:46.130Z,100819.03
2022-11-10T04:05:51.909Z,100838.44
2022-11-10T04:08:57.977Z,100831.81
2022-11-10T04:12:03.954Z,100821.16
2022-11-10T04:15:10.047Z,100842.22
2022-11-10T04:18:19.783Z,100848.88
2022-11-10T04:21:08.237Z,100839.06
2022-11-10T04:23:56.874Z,100851.09
2022-11-10T04:26:47.399Z,100857.75
2022-11-10T04:29:35.822Z,100855.72
2022-11-10T04:32:24.311Z,100866.53
2022-11-10T04:35:14.087Z,100868.75
2022-11-10T04:38:02.516Z,100880.66
2022-11-10T04:40:50.962Z,100882.34
2022-11-10T04:43:39.667Z,100887.34
2022-11-10T04:46:30.996Z,100886.97
2022-11-10T04:49:19.464Z,100892.03
2022-11-10T04:52:09.255Z,100893.69
2022-11-10T04:54:57.758Z,100900.56
2022-11-10T04:57:46.221Z,100901.72
2022-11-10T05:00:35.209Z,100901.91
2022-11-10T05:03:24.064Z,100901.91
2022-11-10T05:06:12.825Z,100909.94
2022-11-10T05:09:02.606Z,100910.66
2022-11-10T05:11:51.246Z,100919.72
2022-11-10T05:14:39.671Z,100913.50
2022-11-10T05:17:28.139Z,100912.63
2022-11-10T05:20:16.933Z,100926.03
2022-11-10T05:23:23.207Z,100922.56
2022-11-10T05:26:14.696Z,100929.19
2022-11-10T05:29:03.123Z,100921.56
2022-11-10T05:31:51.846Z,100914.59
2022-11-10T05:34:40.301Z,100908.28
2022-11-10T05:37:28.748Z,100906.50
2022-11-10T05:40:17.465Z,100897.88
2022-11-10T05:43:07.236Z,100927.75
2022-11-10T05:45:55.677Z,100933.81
2022-11-10T05:48:44.107Z,100942.84
2022-11-10T05:51:32.564Z,100948.44
2022-11-10T05:54:21.018Z,100940.25
2022-11-10T05:57:09.449Z,100940.09
2022-11-10T05:59:59.239Z,100957.44
2022-11-10T06:02:47.717Z,100972.19
2022-11-10T06:05:37.091Z,100981.75
2022-11-10T06:08:25.804Z,100983.09
2022-11-10T06:11:14.267Z,100982.44
2022-11-10T06:14:02.920Z,100953.91
2022-11-10T06:16:52.746Z,100996.66
2022-11-10T06:19:41.396Z,101012.72
2022-11-10T06:22:29.810Z,101027.25
2022-11-10T06:25:18.228Z,101018.91
2022-11-10T06:28:07.326Z,101030.13
2022-11-10T06:30:58.120Z,101046.16
2022-11-10T06:33:49.174Z,101039.81
2022-11-10T06:36:39.086Z,101045.19
2022-11-10T06:39:27.529Z,101054.03
2022-11-10T06:42:15.941Z,101070.91
2022-11-10T06:45:04.908Z,101062.56
2022-11-10T06:48:00.423Z,101073.41
2022-11-10T06:50:50.242Z,101084.09
2022-11-10T06:53:38.663Z,101089.78
2022-11-10T06:56:27.118Z,101091.63
2022-11-10T06:59:15.562Z,101093.81
2022-11-10T07:02:04.001Z,101096.59
2022-11-10T07:04:52.441Z,101105.75
2022-11-10T07:07:42.299Z,101112.44
2022-11-10T07:10:30.760Z,101118.25
2022-11-10T07:13:19.768Z,101084.91
2022-11-10T07:16:09.264Z,101122.50
2022-11-10T07:18:57.717Z,101135.41
2022-11-10T07:21:46.161Z,101145.94
2022-11-10T07:24:36.084Z,101152.81
2022-11-10T07:27:24.540Z,101163.84
2022-11-10T07:30:14.019Z,101167.50
2022-11-10T07:33:02.931Z,101165.34
2022-11-10T07:35:54.314Z,101156.13
2022-11-10T07:38:42.836Z,101163.13
2022-11-10T07:41:32.668Z,101159.34
2022-11-10T07:44:21.138Z,101167.25
2022-11-10T07:47:09.608Z,101177.66
2022-11-10T07:49:59.150Z,101175.78
2022-11-10T07:52:47.628Z,101188.88
2022-11-10T07:55:37.978Z,101185.16
2022-11-10T07:58:27.771Z,101197.53
2022-11-10T08:01:16.253Z,101199.06
2022-11-10T08:04:04.945Z,101195.00
2022-11-10T08:06:54.478Z,101211.38
2022-11-10T08:09:43.035Z,101211.31
2022-11-10T08:12:33.744Z,101213.50
2022-11-10T08:15:24.001Z,101199.41
2022-11-10T08:18:17.031Z,101209.53
2022-11-10T08:21:06.527Z,101227.03
2022-11-10T08:23:55.010Z,101222.44
2022-11-10T08:26:43.464Z,101238.88
2022-11-10T08:29:31.900Z,101237.66
2022-11-10T08:32:22.218Z,101241.47
2022-11-10T08:35:10.661Z,101244.06
2022-11-10T08:37:59.117Z,101249.09
2022-11-10T08:40:47.601Z,101252.88
2022-11-10T08:43:36.020Z,101251.56
2022-11-10T08:46:24.490Z,101251.00
2022-11-10T08:49:14.277Z,101229.81
2022-11-10T08:52:02.832Z,101259.94
2022-11-10T08:54:51.304Z,101256.84
2022-11-10T08:57:39.745Z,101258.94
2022-11-10T09:00:29.500Z,101257.53
2022-11-10T09:03:20.477Z,101258.16
2022-11-10T09:06:10.596Z,101267.47
2022-11-10T09:08:59.063Z,101273.84
2022-11-10T09:11:47.515Z,101272.88
2022-11-10T09:14:35.969Z,101266.06
2022-11-10T09:17:24.414Z,101266.91
2022-11-10T09:20:13.103Z,101276.28
2022-11-10T09:23:07.443Z,101288.38
2022-11-10T09:25:57.050Z,101284.63
2022-11-10T09:28:45.881Z,101299.00
2022-11-10T09:31:34.308Z,101297.75
2022-11-10T09:34:22.812Z,101295.25
2022-11-10T09:37:11.371Z,101296.56
2022-11-10T09:40:01.718Z,101295.94
2022-11-10T09:42:50.742Z,101299.47
2022-11-10T09:45:41.536Z,101302.16
2022-11-10T09:48:32.001Z,101311.13
2022-11-10T09:51:23.299Z,101321.50
2022-11-10T09:54:24.680Z,101328.56
2022-11-10T09:57:17.756Z,101338.34
2022-11-10T10:00:07.283Z,101341.25
2022-11-10T10:03:00.238Z,101345.00
2022-11-10T10:05:54.695Z,101346.66
2022-11-10T10:09:01.626Z,101345.03
2022-11-10T10:11:55.223Z,101334.84
2022-11-10T10:14:57.452Z,101338.59
2022-11-10T10:17:54.191Z,101336.06
2022-11-10T10:20:47.891Z,101326.91
2022-11-10T10:24:07.876Z,101317.78
2022-11-10T10:26:49.829Z,101327.09
2022-11-10T10:29:41.093Z,101328.16
2022-11-10T10:32:30.933Z,101319.00
2022-11-10T10:35:19.975Z,101292.38
2022-11-10T10:38:19.773Z,101310.47
2022-11-10T10:41:18.404Z,101316.72
2022-11-10T10:44:13.242Z,101302.59
2022-11-10T10:47:02.877Z,101283.44
2022-11-10T10:49:52.661Z,101340.22
2022-11-10T10:52:41.122Z,101343.94
2022-11-10T10:55:30.987Z,101329.22
2022-11-10T10:58:22.559Z,101320.63
2022-11-10T11:01:23.168Z,101322.72
2022-11-10T11:04:28.804Z,101323.34
2022-11-10T11:07:23.647Z,101333.56
2022-11-10T11:10:19.891Z,101326.03
2022-11-10T11:13:22.474Z,101321.03
2022-11-10T11:16:12.551Z,101319.56
2022-11-10T11:19:01.174Z,101319.34
2022-11-10T11:22:34.208Z,101322.66
2022-11-10T11:25:29.000Z,101336.81
2022-11-10T11:28:23.396Z,101338.31
2022-11-10T11:31:18.914Z,101310.91
2022-11-10T11:34:15.725Z,101331.91
2022-11-10T11:37:14.152Z,101308.41
2022-11-10T11:40:18.347Z,101331.06
2022-11-10T11:43:21.772Z,101330.19
2022-11-10T11:46:17.399Z,101331.88
2022-11-10T11:49:27.223Z,101322.72
2022-11-10T11:52:20.976Z,101322.50
2022-11-10T11:55:19.977Z,101330.84
2022-11-10T11:58:24.536Z,101329.78
2022-11-10T12:01:25.195Z,101326.25
2022-11-10T12:04:24.070Z,101326.88
2022-11-10T12:07:21.992Z,101327.09
2022-11-10T12:10:19.689Z,101320.19
2022-11-10T12:13:19.054Z,101325.59
2022-11-10T12:16:15.534Z,101317.69
2022-11-10T12:19:09.630Z,101330.38
2022-11-10T12:22:03.503Z,101325.59
2022-11-10T12:25:06.367Z,101327.91
2022-11-10T12:27:57.196Z,101330.19
2022-11-10T12:30:48.355Z,101325.78
2022-11-10T12:33:40.097Z,101329.13
2022-11-10T12:36:29.654Z,101331.44
2022-11-10T12:39:21.277Z,101341.22
2022-11-10T12:42:15.098Z,101342.44
2022-11-10T12:45:05.925Z,101344.97
2022-11-10T12:47:56.341Z,101340.00
2022-11-10T12:50:52.402Z,101336.44
2022-11-10T12:53:42.112Z,101300.72
2022-11-10T12:56:33.819Z,101343.53
2022-11-10T12:59:29.185Z,101339.38
2022-11-10T13:02:26.772Z,101339.38
2022-11-10T13:05:29.135Z,101336.47
2022-11-10T13:08:27.810Z,101339.34
2022-11-10T13:11:26.495Z,101345.63
2022-11-10T13:14:23.898Z,101348.31
2022-11-10T13:17:51.023Z,101357.91
2022-11-10T13:20:52.615Z,101354.38
2022-11-10T13:24:20.487Z,101362.91
2022-11-10T13:27:12.782Z,101319.00
2022-11-10T13:30:01.647Z,101359.81
2022-11-10T13:32:50.615Z,101359.16
2022-11-10T13:35:55.238Z,101360.22
2022-11-10T13:38:45.881Z,101375.00
2022-11-10T13:41:35.476Z,101369.16
2022-11-10T13:44:25.795Z,101363.09
2022-11-10T13:47:47.257Z,101358.50
2022-11-10T13:50:44.262Z,101362.63
2022-11-10T13:53:44.505Z,101360.94
2022-11-10T13:56:58.694Z,101362.41
2022-11-10T13:59:50.241Z,101344.69
2022-11-10T14:03:00.911Z,101364.22
2022-11-10T14:06:05.993Z,101371.69
2022-11-10T14:08:58.020Z,101379.00
2022-11-10T14:11:50.138Z,101377.56
2022-11-10T14:14:50.400Z,101371.94
2022-11-10T14:17:43.040Z,101376.09
2022-11-10T14:20:35.630Z,101374.19
2022-11-10T14:23:27.346Z,101370.63
2022-11-10T14:26:23.976Z,101356.44
2022-11-10T14:29:38.424Z,101390.81
2022-11-10T14:32:27.618Z,101394.06
2022-11-10T14:35:21.988Z,101398.81
2022-11-10T14:38:21.028Z,101407.34
2022-11-10T14:41:18.632Z,101395.03
2022-11-10T14:44:08.485Z,101409.53
2022-11-10T14:46:58.781Z,101321.53
2022-11-10T14:49:47.492Z,101413.22
2022-11-10T14:52:40.018Z,101405.94
2022-11-10T14:55:30.633Z,101411.53
2022-11-10T14:58:25.078Z,101409.41
2022-11-10T15:01:24.792Z,101410.47
2022-11-10T15:04:15.662Z,101405.84
2022-11-10T15:07:04.220Z,101418.69
2022-11-10T15:10:07.481Z,101419.28
2022-11-10T15:13:00.849Z,101422.13
2022-11-10T15:15:53.473Z,101430.41
2022-11-10T15:18:41.885Z,101441.31
2022-11-10T15:21:33.811Z,101436.50
2022-11-10T15:24:23.504Z,101427.31
2022-11-10T15:27:23.915Z,101436.97
2022-11-10T15:30:22.685Z,101421.06
2022-11-10T15:33:12.544Z,101444.91
2022-11-10T15:36:15.430Z,101437.69
2022-11-10T15:39:15.453Z,101442.19
2022-11-10T15:42:13.793Z,101428.22
2022-11-10T15:45:02.305Z,101446.63
2022-11-10T15:47:50.796Z,101441.75
2022-11-10T15:50:42.058Z,101436.00
2022-11-10T15:53:32.628Z,101409.72
2022-11-10T15:56:23.583Z,101425.88
2022-11-10T15:59:12.304Z,101436.81
2022-11-10T16:02:00.861Z,101429.22
2022-11-10T16:04:57.021Z,101434.88
2022-11-10T16:07:49.485Z,101438.38
2022-11-10T16:10:37.978Z,101434.91
2022-11-10T16:13:28.134Z,101444.66
2022-11-10T16:16:17.538Z,101449.66
2022-11-10T16:19:06.023Z,101453.78
2022-11-10T16:21:55.002Z,101454.13
2022-11-10T16:24:45.233Z,101458.44
2022-11-10T16:27:33.956Z,101458.69
2022-11-10T16:30:22.544Z,101468.41
2022-11-10T16:33:15.014Z,101466.31
2022-11-10T16:36:03.596Z,101466.06
2022-11-10T16:38:52.982Z,101464.59
2022-11-10T16:41:42.862Z,101474.03
2022-11-10T16:44:31.404Z,101472.28
2022-11-10T16:47:20.339Z,101475.16
2022-11-10T16:50:26.083Z,101477.72
2022-11-10T16:53:17.190Z,101472.38
2022-11-10T16:56:06.006Z,101470.53
2022-11-10T16:58:55.888Z,101458.16
2022-11-10T17:01:45.367Z,101465.22
2022-11-10T17:04:33.844Z,101468.06
2022-11-10T17:07:25.667Z,101472.44
2022-11-10T17:10:15.938Z,101475.28
2022-11-10T17:13:04.391Z,101487.69
2022-11-10T17:15:56.833Z,101489.22
2022-11-10T17:18:45.838Z,101489.88
2022-11-10T17:21:35.644Z,101495.59
2022-11-10T17:24:24.513Z,101498.59
2022-11-10T17:27:12.972Z,101503.13
2022-11-10T17:30:01.443Z,101493.38
2022-11-10T17:33:04.654Z,101505.59
2022-11-10T17:35:54.350Z,101506.94
2022-11-10T17:38:43.430Z,101517.63
2022-11-10T17:41:31.922Z,101507.72
2022-11-10T17:44:20.857Z,101511.59
2022-11-10T17:47:09.285Z,101507.69
2022-11-10T17:49:59.135Z,101523.94
2022-11-10T17:52:48.192Z,101519.59
2022-11-10T17:55:37.000Z,101513.88
2022-11-10T17:58:25.471Z,101524.25
2022-11-10T18:01:19.109Z,101524.25
2022-11-10T18:04:07.590Z,101402.50
2022-11-10T18:06:57.869Z,101527.25
2022-11-10T18:09:48.420Z,101534.59
2022-11-10T18:12:36.888Z,101529.59
2022-11-10T18:15:25.354Z,101531.38
2022-11-10T18:18:14.235Z,101543.56
2022-11-10T18:21:02.934Z,101542.69
2022-11-10T18:23:52.709Z,101539.63
2022-11-10T18:26:41.227Z,101553.16
2022-11-10T18:29:29.706Z,101553.66
2022-11-10T18:32:18.245Z,101543.25
2022-11-10T18:35:07.080Z,101537.03
2022-11-10T18:37:55.547Z,101552.28
2022-11-10T18:40:45.396Z,101546.47
2022-11-10T18:43:33.941Z,101542.78
2022-11-10T18:46:22.472Z,101547.34
2022-11-10T18:49:10.946Z,101540.81
2022-11-10T18:52:00.123Z,101547.88
2022-11-10T18:54:48.667Z,101557.75
2022-11-10T18:57:38.601Z,101550.25
2022-11-10T19:00:27.114Z,101551.91
2022-11-10T19:03:15.626Z,101550.19
2022-11-10T19:06:05.065Z,101542.63
2022-11-10T19:08:53.529Z,101545.06
2022-11-10T19:11:42.052Z,101530.88
2022-11-10T19:14:31.938Z,101538.66
2022-11-10T19:17:20.461Z,101547.84
2022-11-10T19:20:10.296Z,101544.94
2022-11-10T19:22:58.781Z,101545.78
2022-11-10T19:25:47.285Z,101506.59
2022-11-10T19:28:35.790Z,101541.84
2022-11-10T19:31:27.124Z,101546.06
2022-11-10T19:34:18.537Z,101546.25
2022-11-10T19:37:07.242Z,101501.28
2022-11-10T19:39:55.691Z,101554.09
2022-11-10T19:42:44.156Z,101558.44
2022-11-10T19:45:32.729Z,101546.84
2022-11-10T19:48:22.628Z,101545.00
2022-11-10T19:51:12.941Z,101549.88
2022-11-10T19:54:03.053Z,101552.47
2022-11-10T19:56:51.558Z,101553.16
2022-11-10T19:59:40.007Z,101548.94
2022-11-10T20:02:28.611Z,101556.13
2022-11-10T20:05:18.408Z,101544.59
2022-11-10T20:08:13.610Z,101417.22
2022-11-10T20:11:03.485Z,101578.19
2022-11-10T20:13:55.164Z,101582.22
2022-11-10T20:16:43.793Z,101577.41
2022-11-10T20:19:40.735Z,101582.06
2022-11-10T20:22:31.120Z,101586.94
2022-11-10T20:25:19.675Z,101594.97
2022-11-10T20:28:08.262Z,101602.66
2022-11-10T20:30:57.572Z,101592.47
2022-11-10T20:33:46.146Z,101604.75
2022-11-10T20:36:34.746Z,101607.28
2022-11-10T20:39:24.539Z,101614.22
2022-11-10T20:42:13.298Z,101614.69
2022-11-10T20:45:01.799Z,101619.53
2022-11-10T20:47:50.265Z,101625.19
2022-11-10T20:50:41.043Z,101629.50
2022-11-10T20:53:30.149Z,101619.84
2022-11-10T20:56:20.792Z,101622.56
2022-11-10T20:59:12.126Z,101619.47
2022-11-10T21:02:00.653Z,101585.56
2022-11-10T21:04:49.184Z,101602.84
2022-11-10T21:07:37.846Z,101607.31
2022-11-10T21:10:26.328Z,101615.66
2022-11-10T21:13:16.148Z,101604.31
2022-11-10T21:16:06.466Z,101598.34
2022-11-10T21:18:56.192Z,101599.47
2022-11-10T21:21:44.693Z,101605.38
2022-11-10T21:24:33.386Z,101596.88
2022-11-10T21:27:21.962Z,101597.81
2022-11-10T21:30:22.443Z,101593.88
2022-11-10T21:33:11.729Z,101586.56
2022-11-10T21:36:06.278Z,101570.59
2022-11-10T21:38:54.822Z,101576.94
2022-11-10T21:41:43.287Z,101580.84
2022-11-10T21:44:31.759Z,101585.09
2022-11-10T21:47:21.727Z,101588.03
2022-11-10T21:50:10.245Z,101583.34
2022-11-10T21:52:58.680Z,101594.44
2022-11-10T21:55:47.143Z,101591.94
2022-11-10T21:58:35.636Z,101604.63
2022-11-10T22:01:24.196Z,101600.88
2022-11-10T22:04:15.086Z,101601.03
2022-11-10T22:07:21.131Z,101591.47
2022-11-10T22:10:28.676Z,101583.31
2022-11-10T22:13:34.870Z,101544.66
2022-11-10T22:16:42.509Z,101590.66
2022-11-10T22:19:33.261Z,101591.97
2022-11-10T22:22:21.716Z,101589.09
2022-11-10T22:25:10.573Z,101565.69
2022-11-10T22:27:59.043Z,101571.56
2022-11-10T22:30:47.530Z,101579.00
2022-11-10T22:33:37.053Z,101579.47
2022-11-10T22:36:26.912Z,101576.34
2022-11-10T22:39:15.409Z,101582.94
2022-11-10T22:42:21.582Z,101594.41
2022-11-10T22:45:10.291Z,101592.75
2022-11-10T22:48:16.279Z,101592.75
2022-11-10T22:51:04.849Z,101583.63
2022-11-10T22:53:54.692Z,101570.78
2022-11-10T22:56:43.271Z,101550.34
2022-11-10T22:59:31.735Z,101583.69
2022-11-10T23:02:20.170Z,101578.34
2022-11-10T23:05:09.063Z,101588.72
2022-11-10T23:07:57.490Z,101590.09
2022-11-10T23:10:47.350Z,101603.44
2022-11-10T23:13:36.601Z,101607.78
2022-11-10T23:16:26.777Z,101598.00
2022-11-10T23:19:15.340Z,101604.88
2022-11-10T23:22:03.832Z,101614.47
2022-11-10T23:24:56.974Z,101624.16
2022-11-10T23:27:47.340Z,101619.09
2022-11-10T23:30:35.762Z,101624.31
2022-11-10T23:33:27.538Z,101616.59
2022-11-10T23:36:19.352Z,101620.66
2022-11-10T23:39:07.820Z,101605.78
2022-11-10T23:41:56.298Z,101614.38
2022-11-10T23:44:46.099Z,101610.84
2022-11-10T23:47:34.526Z,101617.19
2022-11-10T23:50:22.959Z,101611.84
2022-11-10T23:53:11.486Z,101603.13
2022-11-10T23:56:01.114Z,101605.81
2022-11-10T23:58:49.538Z,101615.63
